Time;durP1;ratioP1;P1;durP2;ratioP2;P2;SDS_P1;SDS_P2;PMS_P1;PMS_P2;Temp;Humidity;BMP_temperature;BMP_pressure;BME280_temperature;BME280_humidity;BME280_pressure;Samples;Min_cycle;Max_cycle;Signal;HPM_P1;HPM_P2
2023/11/28 00:00:09;;;;;;;2.90;2.25;;;;;;;-0.64;100.00;96091.72;6104202;19;20003;-74
2023/11/28 00:02:10;;;;;;;3.13;2.30;;;;;;;-0.61;100.00;96099.16;6103275;19;20026;-74
2023/11/28 00:04:10;;;;;;;4.28;2.88;;;;;;;-0.62;100.00;96090.22;6104350;19;20003;-74
2023/11/28 00:06:17;;;;;;;4.30;2.53;;;;;;;-0.62;100.00;96090.22;6104340;19;20012;-74
2023/11/28 00:08:20;;;;;;;4.38;2.67;;;;;;;-0.58;100.00;96096.50;6101467;19;20011;-74
2023/11/28 00:10:20;;;;;;;4.38;2.55;;;;;;;-0.59;100.00;96091.41;6103779;19;20716;-74
2023/11/28 00:12:21;;;;;;;3.50;2.38;;;;;;;-0.58;100.00;96092.97;6105387;19;20525;-73
2023/11/28 00:14:21;;;;;;;3.83;2.42;;;;;;;-0.60;100.00;96085.19;6103510;19;20577;-74
2023/11/28 00:16:21;;;;;;;3.15;2.25;;;;;;;-0.59;100.00;96088.69;6104173;19;20022;-73
2023/11/28 00:18:22;;;;;;;3.63;2.30;;;;;;;-0.56;100.00;96093.41;6102517;19;20023;-73
2023/11/28 00:20:22;;;;;;;3.55;2.15;;;;;;;-0.55;100.00;96086.06;6104004;19;20010;-73
2023/11/28 00:22:22;;;;;;;3.20;2.25;;;;;;;-0.54;100.00;96085.69;6104573;19;20019;-73
2023/11/28 00:24:23;;;;;;;3.72;2.47;;;;;;;-0.56;100.00;96082.56;6103708;19;20006;-74
2023/11/28 00:26:23;;;;;;;3.50;2.13;;;;;;;-0.56;100.00;96082.56;6103981;19;20430;-74
2023/11/28 00:28:26;;;;;;;3.83;2.50;;;;;;;-0.53;100.00;96089.19;6102197;19;20014;-74
2023/11/28 00:30:26;;;;;;;2.65;2.20;;;;;;;-0.52;100.00;96088.03;6103614;19;20221;-73
2023/11/28 00:32:27;;;;;;;4.43;2.65;;;;;;;-0.52;100.00;96082.59;6104651;19;20523;-74
2023/11/28 00:34:27;;;;;;;4.18;2.25;;;;;;;-0.50;100.00;96083.00;6103848;19;20093;-74
2023/11/28 00:36:27;;;;;;;3.58;2.13;;;;;;;-0.54;100.00;96082.19;6103083;19;20006;-74
2023/11/28 00:38:29;;;;;;;2.92;1.83;;;;;;;-0.53;100.00;96089.19;6102034;19;20021;-73
2023/11/28 00:40:31;;;;;;;3.15;2.30;;;;;;;-0.52;100.00;96080.66;6104528;19;20014;-73
2023/11/28 00:42:32;;;;;;;3.47;2.25;;;;;;;-0.50;100.00;96085.72;6103933;19;20109;-73
2023/11/28 00:44:33;;;;;;;4.13;2.63;;;;;;;-0.52;100.00;96079.88;6102982;19;20011;-73
2023/11/28 00:46:33;;;;;;;2.65;2.00;;;;;;;-0.52;100.00;96086.09;6103848;19;20015;-73
2023/11/28 00:48:33;;;;;;;2.90;2.03;;;;;;;-0.54;100.00;96084.91;6101391;19;20006;-73
2023/11/28 00:50:34;;;;;;;3.38;2.05;;;;;;;-0.52;100.00;96080.66;6102416;19;20003;-74
2023/11/28 00:52:34;;;;;;;3.55;2.05;;;;;;;-0.53;100.00;96081.03;6102924;19;20074;-73
2023/11/28 00:54:36;;;;;;;3.40;2.08;;;;;;;-0.54;100.00;96082.97;6103261;19;20010;-73
2023/11/28 00:56:37;;;;;;;3.17;2.08;;;;;;;-0.51;100.00;96084.16;6102835;19;20027;-74
2023/11/28 00:58:37;;;;;;;2.63;1.80;;;;;;;-0.51;100.00;96092.31;6101371;19;20010;-73
2023/11/28 01:00:37;;;;;;;3.42;2.22;;;;;;;-0.52;100.00;96098.91;6101270;19;20011;-73
2023/11/28 01:02:38;;;;;;;3.25;2.22;;;;;;;-0.51;100.00;96093.09;6102819;19;20335;-73
2023/11/28 01:04:38;;;;;;;3.00;2.08;;;;;;;-0.49;100.00;96098.97;6102560;19;20014;-73
2023/11/28 01:06:39;;;;;;;2.78;1.92;;;;;;;-0.53;100.00;96098.13;6102262;19;20514;-74
2023/11/28 01:08:39;;;;;;;3.35;1.75;;;;;;;-0.53;100.00;96094.63;6100637;19;20024;-74
2023/11/28 01:10:40;;;;;;;5.95;2.00;;;;;;;-0.53;100.00;96100.03;6103325;19;20007;-73
2023/11/28 01:12:40;;;;;;;2.95;2.13;;;;;;;-0.57;100.00;96094.56;6102634;19;20086;-74
2023/11/28 01:14:40;;;;;;;3.55;2.10;;;;;;;-0.55;100.00;96099.63;6103070;19;20458;-74
2023/11/28 01:16:44;;;;;;;2.63;1.83;;;;;;;-0.57;100.00;96094.56;6101027;19;20038;-74
2023/11/28 01:18:45;;;;;;;2.60;1.98;;;;;;;-0.55;100.00;96100.41;6101019;19;20027;-74
2023/11/28 01:20:45;;;;;;;2.88;1.83;;;;;;;-0.56;100.00;96098.84;6102643;19;20006;-73
2023/11/28 01:22:46;;;;;;;3.17;1.90;;;;;;;-0.54;100.00;96096.56;6102364;19;20034;-74
2023/11/28 01:24:46;;;;;;;2.35;1.75;;;;;;;-0.52;100.00;96099.69;6101565;19;20578;-73
2023/11/28 01:26:46;;;;;;;1.90;1.50;;;;;;;-0.55;100.00;96100.41;6093247;19;20029;-74
2023/11/28 01:28:46;;;;;;;2.97;1.83;;;;;;;-0.55;100.00;96103.13;6099290;19;20023;-74
2023/11/28 01:30:48;;;;;;;2.50;1.80;;;;;;;-0.54;100.00;96095.78;6101255;19;20030;-73
2023/11/28 01:32:48;;;;;;;2.85;1.80;;;;;;;-0.58;100.00;96096.50;6102527;19;20011;-73
2023/11/28 01:34:48;;;;;;;2.40;1.63;;;;;;;-0.54;100.00;96107.41;6101027;19;20034;-73
2023/11/28 01:36:49;;;;;;;2.10;1.58;;;;;;;-0.57;100.00;96092.63;6100843;19;20044;-73
2023/11/28 01:38:49;;;;;;;3.17;1.80;;;;;;;-0.53;100.00;96095.41;6099953;19;20752;-73
2023/11/28 01:40:52;;;;;;;2.67;1.80;;;;;;;-0.54;100.00;96095.78;6102405;19;20027;-73
2023/11/28 01:42:52;;;;;;;2.35;1.73;;;;;;;-0.57;100.00;96094.56;6102155;19;20408;-74
2023/11/28 01:44:53;;;;;;;2.47;1.58;;;;;;;-0.57;100.00;96100.00;6100843;19;20251;-73
2023/11/28 01:46:53;;;;;;;2.67;1.83;;;;;;;-0.58;100.00;96099.22;6099387;19;20014;-74
2023/11/28 01:48:54;;;;;;;2.38;1.73;;;;;;;-0.60;100.00;96104.22;6100679;19;20082;-73
2023/11/28 01:50:54;;;;;;;3.45;2.00;;;;;;;-0.59;100.00;96105.00;6101883;19;20015;-74
2023/11/28 01:52:55;;;;;;;3.65;2.50;;;;;;;-0.62;100.00;96106.50;6101658;19;20007;-74
2023/11/28 01:54:55;;;;;;;4.22;2.50;;;;;;;-0.64;100.00;96102.59;6100987;19;20010;-74
2023/11/28 01:56:55;;;;;;;5.03;2.75;;;;;;;-0.61;100.00;96107.28;6100957;19;20401;-74
2023/11/28 01:58:56;;;;;;;3.78;2.22;;;;;;;-0.63;100.00;96107.66;6100034;19;20006;-73
2023/11/28 02:00:58;;;;;;;4.80;2.42;;;;;;;-0.64;100.00;96116.97;6100888;19;20011;-73
2023/11/28 02:03:01;;;;;;;2.97;2.00;;;;;;;-0.61;100.00;96118.16;6102540;19;20014;-73
2023/11/28 02:05:02;;;;;;;3.22;2.03;;;;;;;-0.62;100.00;96103.00;6100962;19;20048;-73
2023/11/28 02:07:03;;;;;;;4.53;2.80;;;;;;;-0.63;100.00;96107.66;6099186;19;20007;-73
2023/11/28 02:09:03;;;;;;;3.25;2.20;;;;;;;-0.62;100.00;96116.59;6099738;19;20029;-73
2023/11/28 02:11:04;;;;;;;3.47;2.38;;;;;;;-0.66;100.00;96107.63;6101590;19;20010;-73
2023/11/28 02:13:08;;;;;;;3.25;2.08;;;;;;;-0.60;100.00;96111.56;6100977;19;20011;-73
2023/11/28 02:15:08;;;;;;;3.08;2.05;;;;;;;-0.61;100.00;96108.06;6100066;19;20477;-73
2023/11/28 02:17:09;;;;;;;2.40;1.80;;;;;;;-0.63;100.00;96104.94;6100285;19;20027;-73
2023/11/28 02:19:09;;;;;;;2.35;1.58;;;;;;;-0.67;100.00;96106.03;6099783;19;20548;-73
2023/11/28 02:21:11;;;;;;;2.13;1.48;;;;;;;-0.64;100.00;96111.53;6101300;19;20007;-73
2023/11/28 02:23:12;;;;;;;2.50;1.67;;;;;;;-0.70;100.00;96106.75;6100762;19;20010;-73
2023/11/28 02:25:12;;;;;;;2.05;1.50;;;;;;;-0.76;100.00;96100.06;6100562;19;20006;-73
2023/11/28 02:27:12;;;;;;;1.75;1.27;;;;;;;-0.75;100.00;96099.69;6097890;19;20010;-73
2023/11/28 02:29:13;;;;;;;1.63;1.30;;;;;;;-0.74;100.00;96106.72;6088369;19;20483;-73
2023/11/28 02:31:13;;;;;;;1.50;1.10;;;;;;;-0.78;100.00;96102.34;6090463;19;20026;-73
2023/11/28 02:33:14;;;;;;;2.30;1.13;;;;;;;-0.86;100.00;96094.06;6092199;19;20010;-73
2023/11/28 02:35:15;;;;;;;1.80;1.10;;;;;;;-0.86;100.00;96091.38;6091145;19;20002;-73
2023/11/28 02:37:15;;;;;;;1.08;0.90;;;;;;;-0.77;100.00;96103.91;6090823;19;20002;-73
2023/11/28 02:39:16;;;;;;;1.65;1.13;;;;;;;-0.82;100.00;96105.00;6090399;19;20020;-74
2023/11/28 02:41:16;;;;;;;2.45;1.10;;;;;;;-0.82;100.00;96107.72;6091846;19;20222;-73
2023/11/28 02:43:17;;;;;;;1.65;1.20;;;;;;;-0.84;100.00;96107.28;6090629;19;20237;-73
2023/11/28 02:45:17;;;;;;;1.05;0.80;;;;;;;-0.90;100.00;96108.75;6091402;19;20003;-73
2023/11/28 02:47:18;;;;;;;1.00;0.90;;;;;;;-0.94;100.00;96116.03;6088533;19;20446;-73
2023/11/28 02:49:18;;;;;;;1.45;0.80;;;;;;;-0.91;100.00;96105.25;6090066;19;19999;-73
2023/11/28 02:51:20;;;;;;;1.25;0.80;;;;;;;-0.90;100.00;96101.38;6090898;19;20003;-73
2023/11/28 02:53:20;;;;;;;1.67;1.17;;;;;;;-0.91;100.00;96101.72;6091163;19;20007;-73
2023/11/28 02:55:21;;;;;;;0.80;0.80;;;;;;;-0.94;100.00;96103.25;6091268;19;20009;-73
2023/11/28 02:57:21;;;;;;;1.00;0.80;;;;;;;-0.95;100.00;96101.69;6090830;19;20415;-73
2023/11/28 02:59:21;;;;;;;0.98;0.80;;;;;;;-0.91;100.00;96093.59;6089973;19;20936;-73
2023/11/28 03:01:22;;;;;;;1.80;1.13;;;;;;;-0.88;100.00;96090.16;6091121;19;20587;-73
2023/11/28 03:03:22;;;;;;;1.40;1.05;;;;;;;-0.90;100.00;96095.19;6090786;19;20010;-73
2023/11/28 03:05:22;;;;;;;1.23;0.90;;;;;;;-0.92;100.00;96100.16;6090168;19;20006;-74
2023/11/28 03:07:23;;;;;;;1.67;1.10;;;;;;;-0.96;100.00;96097.41;6089385;19;20012;-75
2023/11/28 03:09:23;;;;;;;2.15;1.13;;;;;;;-0.97;100.00;96093.13;6090484;19;20031;-74
2023/11/28 03:11:23;;;;;;;1.20;1.00;;;;;;;-0.94;100.00;96092.38;6089649;19;20560;-75
2023/11/28 03:13:24;;;;;;;2.10;1.20;;;;;;;-0.89;100.00;96097.53;6090041;19;20820;-75
2023/11/28 03:15:24;;;;;;;1.95;1.33;;;;;;;-0.82;100.00;96096.88;6091051;19;20023;-75
2023/11/28 03:17:24;;;;;;;1.45;1.30;;;;;;;-0.86;100.00;96096.00;6089135;19;20399;-75
2023/11/28 03:19:26;;;;;;;1.48;1.05;;;;;;;-0.93;100.00;96099.38;6090043;19;20471;-75
2023/11/28 03:21:26;;;;;;;1.55;1.17;;;;;;;-0.91;100.00;96099.00;6089920;19;20014;-75
2023/11/28 03:23:27;;;;;;;2.47;1.50;;;;;;;-0.98;100.00;96099.69;6089988;19;20029;-75
2023/11/28 03:25:27;;;;;;;1.95;1.30;;;;;;;-1.00;100.00;96093.03;6090891;19;20086;-75
2023/11/28 03:27:28;;;;;;;1.52;1.20;;;;;;;-0.99;100.00;96098.13;6091425;19;20333;-75
2023/11/28 03:29:28;;;;;;;2.25;1.50;;;;;;;-0.97;100.00;96103.19;6099262;19;20006;-75
2023/11/28 03:31:28;;;;;;;1.55;1.25;;;;;;;-1.03;100.00;96099.97;6099309;19;20015;-75
2023/11/28 03:33:29;;;;;;;1.85;1.42;;;;;;;-1.03;100.00;96105.41;6099904;19;20007;-75
2023/11/28 03:35:29;;;;;;;1.50;1.33;;;;;;;-1.07;100.00;96104.56;6098899;19;20006;-75
2023/11/28 03:37:29;;;;;;;2.47;1.50;;;;;;;-1.08;100.00;96113.06;6097633;19;20112;-75
2023/11/28 03:39:30;;;;;;;2.10;1.30;;;;;;;-1.02;100.00;96119.75;6098034;19;20007;-75
2023/11/28 03:41:30;;;;;;;2.33;1.20;;;;;;;-0.96;100.00;96116.41;6098664;19;20006;-75
2023/11/28 03:43:30;;;;;;;2.10;1.40;;;;;;;-0.98;100.00;96117.91;6099237;19;20042;-75
2023/11/28 03:45:31;;;;;;;1.10;1.00;;;;;;;-1.01;100.00;96113.97;6099290;19;20467;-75
2023/11/28 03:47:31;;;;;;;2.38;1.55;;;;;;;-1.04;100.00;96113.91;6097483;19;20078;-75
2023/11/28 03:49:31;;;;;;;2.17;1.30;;;;;;;-1.09;100.00;96123.13;6098720;19;20379;-75
2023/11/28 03:51:32;;;;;;;1.45;1.10;;;;;;;-1.07;100.00;96122.78;6099123;19;20408;-75
2023/11/28 03:53:32;;;;;;;2.17;1.27;;;;;;;-1.10;100.00;96126.19;6098885;19;20027;-74
2023/11/28 03:55:33;;;;;;;2.08;1.40;;;;;;;-1.10;100.00;96118.84;6098785;19;20498;-75
2023/11/28 03:57:33;;;;;;;2.08;1.30;;;;;;;-1.08;100.00;96124.69;6097526;19;20013;-75
2023/11/28 03:59:34;;;;;;;2.50;1.70;;;;;;;-1.08;100.00;96130.13;6102654;19;20007;-75
2023/11/28 04:01:34;;;;;;;2.42;1.70;;;;;;;-1.09;100.00;96122.34;6104717;19;20491;-75
2023/11/28 04:03:34;;;;;;;3.05;1.85;;;;;;;-1.13;100.00;96125.78;6103954;19;20367;-75
2023/11/28 04:05:35;;;;;;;2.00;1.50;;;;;;;-1.17;100.00;96118.72;6104721;19;20013;-75
2023/11/28 04:07:36;;;;;;;2.15;1.40;;;;;;;-1.14;100.00;96129.66;6103107;19;20079;-75
2023/11/28 04:09:36;;;;;;;2.35;1.70;;;;;;;-1.11;100.00;96135.50;6104098;19;20018;-75
2023/11/28 04:11:36;;;;;;;2.63;1.90;;;;;;;-1.05;100.00;96131.34;6103880;19;20007;-75
2023/11/28 04:13:37;;;;;;;2.13;1.70;;;;;;;-1.06;100.00;96133.28;6104095;19;20007;-75
2023/11/28 04:15:38;;;;;;;2.58;1.83;;;;;;;-1.15;100.00;96125.38;6103954;19;20081;-75
2023/11/28 04:17:39;;;;;;;2.78;1.70;;;;;;;-1.13;100.00;96139.34;6102517;19;20389;-75
2023/11/28 04:19:39;;;;;;;2.33;1.85;;;;;;;-1.15;100.00;96135.44;6104442;19;20346;-75
2023/11/28 04:21:39;;;;;;;3.63;2.28;;;;;;;-1.11;100.00;96141.69;6103756;19;20010;-74
2023/11/28 04:23:40;;;;;;;2.70;1.95;;;;;;;-1.13;100.00;96147.50;6103936;19;20401;-75
2023/11/28 04:25:40;;;;;;;3.13;2.20;;;;;;;-1.16;100.00;96152.84;6104174;19;20068;-75
2023/11/28 04:27:40;;;;;;;3.60;2.33;;;;;;;-1.20;100.00;96155.50;6101925;19;20038;-75
2023/11/28 04:29:41;;;;;;;2.33;1.85;;;;;;;-1.11;100.00;96162.63;6103974;19;20069;-75
2023/11/28 04:31:41;;;;;;;3.42;2.35;;;;;;;-1.09;100.00;96161.13;6104869;19;20019;-75
2023/11/28 04:33:41;;;;;;;3.05;2.00;;;;;;;-1.09;100.00;96161.13;6103915;19;20007;-75
2023/11/28 04:35:42;;;;;;;3.38;2.00;;;;;;;-1.13;100.00;96165.69;6103922;19;20359;-75
2023/11/28 04:37:42;;;;;;;3.63;2.17;;;;;;;-1.15;100.00;96166.06;6101418;19;20505;-75
2023/11/28 04:39:44;;;;;;;3.25;2.30;;;;;;;-1.17;100.00;96167.53;6103911;19;20297;-75
2023/11/28 04:41:44;;;;;;;3.10;2.38;;;;;;;-1.15;100.00;96168.00;6103832;19;20693;-75
2023/11/28 04:43:45;;;;;;;3.58;2.40;;;;;;;-1.18;100.00;96169.47;6103652;19;20010;-75
2023/11/28 04:45:45;;;;;;;3.38;2.25;;;;;;;-1.15;100.00;96173.44;6103456;19;20033;-75
2023/11/28 04:47:45;;;;;;;4.07;2.50;;;;;;;-1.15;100.00;96166.06;6101716;19;20351;-74
2023/11/28 04:49:46;;;;;;;3.47;2.25;;;;;;;-1.16;100.00;96166.41;6102311;19;20025;-75
2023/11/28 04:51:46;;;;;;;3.35;2.17;;;;;;;-1.13;100.00;96166.50;6100532;19;20048;-75
2023/11/28 04:53:47;;;;;;;3.60;2.25;;;;;;;-1.15;100.00;96170.72;6103556;19;20348;-75
2023/11/28 04:55:47;;;;;;;3.42;2.50;;;;;;;-1.11;100.00;96178.91;6101935;19;20046;-74
2023/11/28 04:57:47;;;;;;;3.63;2.40;;;;;;;-1.19;100.00;96189.63;6101478;19;20011;-75
2023/11/28 04:59:48;;;;;;;3.67;2.22;;;;;;;-1.22;100.00;96184.13;6102805;19;19998;-75
2023/11/28 05:01:49;;;;;;;2.95;2.40;;;;;;;-1.18;100.00;96191.19;6100673;19;20036;-75
2023/11/28 05:03:50;;;;;;;4.47;2.38;;;;;;;-1.24;100.00;96198.06;6099676;19;20431;-75
2023/11/28 05:05:51;;;;;;;3.67;2.67;;;;;;;-1.29;100.00;96184.75;6103103;19;20202;-75
2023/11/28 05:07:51;;;;;;;4.05;2.88;;;;;;;-1.29;100.00;96192.13;6098113;19;20468;-75
2023/11/28 05:09:51;;;;;;;4.15;3.05;;;;;;;-1.29;100.00;96198.34;6098344;19;20314;-75
2023/11/28 05:11:52;;;;;;;4.95;3.50;;;;;;;-1.31;100.00;96205.25;6102096;19;20356;-74
2023/11/28 05:13:52;;;;;;;5.03;3.17;;;;;;;-1.31;100.00;96197.13;6100839;19;20340;-74
2023/11/28 05:15:52;;;;;;;4.68;3.17;;;;;;;-1.31;100.00;96207.97;6101994;19;20463;-74
2023/11/28 05:17:53;;;;;;;5.35;3.03;;;;;;;-1.38;100.00;96211.31;6100071;19;20021;-74
2023/11/28 05:19:53;;;;;;;5.97;3.65;;;;;;;-1.38;100.00;96214.03;6102147;19;20030;-75
2023/11/28 05:21:53;;;;;;;6.82;3.95;;;;;;;-1.43;100.00;96217.78;6101293;19;20002;-75
2023/11/28 05:23:54;;;;;;;4.57;3.05;;;;;;;-1.39;100.00;96215.19;6100686;19;20019;-74
2023/11/28 05:25:54;;;;;;;4.45;3.83;;;;;;;-1.38;100.00;96216.75;6101719;19;20003;-75
2023/11/28 05:27:54;;;;;;;5.47;3.25;;;;;;;-1.35;100.00;96239.66;6100118;19;20003;-74
2023/11/28 05:29:55;;;;;;;5.90;3.83;;;;;;;-1.37;100.00;96228.38;6101548;19;20328;-74
2023/11/28 05:31:55;;;;;;;5.32;3.63;;;;;;;-1.43;100.00;96228.66;6101039;19;20243;-75
2023/11/28 05:33:55;;;;;;;5.43;3.75;;;;;;;-1.48;100.00;96230.88;6100727;19;20013;-75
2023/11/28 05:35:56;;;;;;;5.40;3.72;;;;;;;-1.50;100.00;96233.13;6101281;19;20002;-75
2023/11/28 05:37:56;;;;;;;6.35;4.05;;;;;;;-1.48;100.00;96239.78;6099186;19;20070;-75
2023/11/28 05:39:58;;;;;;;6.72;3.80;;;;;;;-1.49;100.00;96243.66;6102114;19;20411;-74
2023/11/28 05:41:58;;;;;;;6.57;3.55;;;;;;;-1.44;100.00;96237.16;6101248;19;20550;-75
2023/11/28 05:43:58;;;;;;;6.22;4.03;;;;;;;-1.44;100.00;96248.00;6100560;19;20481;-75
2023/11/28 05:45:59;;;;;;;6.18;3.70;;;;;;;-1.43;100.00;96249.56;6102440;19;19998;-74
2023/11/28 05:47:59;;;;;;;5.32;3.72;;;;;;;-1.47;100.00;96243.28;6098772;19;20020;-75
2023/11/28 05:50:00;;;;;;;4.15;3.10;;;;;;;-1.54;100.00;96253.97;6100734;19;20022;-74
2023/11/28 05:52:01;;;;;;;7.35;3.53;;;;;;;-1.55;100.00;96255.91;6101988;19;20003;-75
2023/11/28 05:54:01;;;;;;;5.47;3.28;;;;;;;-1.52;100.00;96257.91;6100007;19;20006;-74
2023/11/28 05:56:02;;;;;;;4.78;3.63;;;;;;;-1.55;100.00;96269.47;6098967;19;20069;-74
2023/11/28 05:58:03;;;;;;;6.15;3.60;;;;;;;-1.58;100.00;96262.00;6099105;19;19994;-74
2023/11/28 06:00:04;;;;;;;6.25;4.07;;;;;;;-1.62;100.00;96288.28;6100125;19;20493;-75
2023/11/28 06:02:05;;;;;;;6.13;3.58;;;;;;;-1.63;100.00;96294.06;6099945;19;20007;-75
2023/11/28 06:04:05;;;;;;;5.88;4.13;;;;;;;-1.64;100.00;96293.28;6100440;19;20018;-74
2023/11/28 06:06:06;;;;;;;5.55;3.85;;;;;;;-1.68;100.00;96284.25;6100882;19;20709;-74
2023/11/28 06:08:06;;;;;;;5.25;4.05;;;;;;;-1.69;100.00;96290.81;6098628;19;20561;-74
2023/11/28 06:10:10;;;;;;;5.47;3.85;;;;;;;-1.69;100.00;96317.94;6100546;19;20034;-74
2023/11/28 06:12:10;;;;;;;7.15;3.42;;;;;;;-1.68;100.00;96302.44;6100201;19;20007;-74
2023/11/28 06:14:11;;;;;;;5.30;3.58;;;;;;;-1.81;100.00;96294.41;6100913;19;20070;-74
2023/11/28 06:16:13;;;;;;;6.40;4.22;;;;;;;-1.81;100.00;96310.69;6099842;19;20007;-74
2023/11/28 06:18:13;;;;;;;4.78;3.47;;;;;;;-1.75;100.00;96319.31;6099150;19;20006;-74
2023/11/28 06:20:17;;;;;;;9.20;4.50;;;;;;;-1.77;100.00;96316.19;6099186;19;20048;-74
2023/11/28 06:22:17;;;;;;;6.65;4.32;;;;;;;-1.79;100.00;96324.66;6100188;19;20450;-74
2023/11/28 06:24:18;;;;;;;9.18;4.68;;;;;;;-1.78;100.00;96325.47;6098069;19;20009;-74
2023/11/28 06:26:18;;;;;;;8.85;4.45;;;;;;;-1.82;100.00;96330.81;6098218;19;20059;-75
2023/11/28 06:28:19;;;;;;;9.63;4.85;;;;;;;-1.84;100.00;96333.06;6086599;19;20564;-75
2023/11/28 06:30:19;;;;;;;7.45;4.68;;;;;;;-1.91;100.00;96334.78;6099892;19;20454;-75
2023/11/28 06:32:19;;;;;;;8.15;5.07;;;;;;;-1.89;100.00;96340.69;6099941;19;20335;-75
2023/11/28 06:34:20;;;;;;;6.43;4.32;;;;;;;-1.86;100.00;96343.47;6098947;19;20428;-75
2023/11/28 06:36:21;;;;;;;6.60;4.38;;;;;;;-1.91;100.00;96354.56;6096983;19;20039;-75
2023/11/28 06:38:22;;;;;;;6.60;4.53;;;;;;;-1.85;100.00;96358.59;6095423;19;20031;-74
2023/11/28 06:40:23;;;;;;;6.43;4.20;;;;;;;-1.89;100.00;96367.78;6097538;19;20346;-75
2023/11/28 06:42:23;;;;;;;7.50;4.75;;;;;;;-1.90;100.00;96358.88;6096997;19;20022;-74
2023/11/28 06:44:23;;;;;;;6.28;4.65;;;;;;;-1.95;100.00;96364.53;6096511;19;20006;-74
2023/11/28 06:46:25;;;;;;;6.32;4.63;;;;;;;-1.93;100.00;96370.38;6097210;19;20011;-74
2023/11/28 06:48:27;;;;;;;7.30;4.20;;;;;;;-1.99;100.00;96364.44;6094931;19;20014;-74
2023/11/28 06:50:27;;;;;;;7.88;4.78;;;;;;;-1.94;100.00;96381.56;6099016;19;20014;-74
2023/11/28 06:52:27;;;;;;;7.80;5.20;;;;;;;-2.02;100.00;96381.38;6099562;19;20291;-74
2023/11/28 06:54:29;;;;;;;9.23;4.90;;;;;;;-2.05;100.00;96382.09;6100357;19;20014;-74
2023/11/28 06:56:29;;;;;;;9.38;5.10;;;;;;;-2.04;100.00;96386.38;6100434;19;20013;-74
2023/11/28 06:58:30;;;;;;;8.35;5.93;;;;;;;-2.06;100.00;96393.28;6099336;19;20490;-74
2023/11/28 07:00:30;;;;;;;7.88;5.00;;;;;;;-2.00;100.00;96395.38;6099493;19;20010;-74
2023/11/28 07:02:31;;;;;;;7.72;4.97;;;;;;;-2.03;100.00;96404.19;6095264;19;20016;-74
2023/11/28 07:04:32;;;;;;;7.72;4.95;;;;;;;-2.08;100.00;96407.16;6092736;19;20487;-74
2023/11/28 07:06:32;;;;;;;9.40;5.15;;;;;;;-2.10;100.00;96409.44;6095127;19;20010;-74
2023/11/28 07:08:34;;;;;;;6.63;4.70;;;;;;;-2.12;100.00;96419.03;6095160;19;20003;-74
2023/11/28 07:10:34;;;;;;;9.00;5.43;;;;;;;-2.11;100.00;96418.69;6098523;19;20010;-74
2023/11/28 07:12:34;;;;;;;8.68;5.47;;;;;;;-2.06;100.00;96440.13;6097881;19;20484;-74
2023/11/28 07:14:35;;;;;;;9.05;5.65;;;;;;;-2.09;100.00;96432.69;6097255;19;20027;-74
2023/11/28 07:16:35;;;;;;;9.57;5.30;;;;;;;-2.08;100.00;96428.84;6099193;19;20007;-74
2023/11/28 07:18:36;;;;;;;12.30;6.10;;;;;;;-2.13;100.00;96437.22;6096563;19;20665;-74
2023/11/28 07:20:37;;;;;;;7.57;5.03;;;;;;;-2.21;100.00;96440.09;6098143;19;20030;-74
2023/11/28 07:22:37;;;;;;;9.40;5.72;;;;;;;-2.19;100.00;96437.81;6098714;19;20011;-74
2023/11/28 07:24:38;;;;;;;10.82;5.80;;;;;;;-2.12;100.00;96448.84;6099499;19;20382;-74
2023/11/28 07:26:39;;;;;;;9.88;6.25;;;;;;;-2.21;100.00;96448.22;6099306;19;20007;-74
2023/11/28 07:28:40;;;;;;;9.35;5.72;;;;;;;-2.20;100.00;96456.00;6090242;19;20372;-74
2023/11/28 07:30:40;;;;;;;9.82;5.43;;;;;;;-2.22;100.00;96454.75;6091428;19;20010;-74
2023/11/28 07:32:41;;;;;;;9.40;5.85;;;;;;;-2.21;100.00;96459.84;6092961;19;20078;-74
2023/11/28 07:34:41;;;;;;;11.73;5.80;;;;;;;-2.22;100.00;96463.69;6096439;19;20026;-74
2023/11/28 07:36:43;;;;;;;9.52;6.00;;;;;;;-2.12;100.00;96475.94;6096729;19;20002;-74
2023/11/28 07:38:43;;;;;;;10.82;6.53;;;;;;;-2.24;100.00;96474.03;6095857;19;20070;-74
2023/11/28 07:40:44;;;;;;;10.32;5.97;;;;;;;-2.20;100.00;96479.59;6096389;19;20033;-74
2023/11/28 07:42:44;;;;;;;10.95;6.80;;;;;;;-2.25;100.00;96483.31;6096783;19;20029;-74
2023/11/28 07:44:44;;;;;;;9.48;5.75;;;;;;;-2.24;100.00;96492.22;6096987;19;20013;-74
2023/11/28 07:46:45;;;;;;;10.45;6.45;;;;;;;-2.23;100.00;96486.47;6096416;19;20010;-74
2023/11/28 07:48:45;;;;;;;9.77;6.07;;;;;;;-2.22;100.00;96487.28;6094940;19;20579;-74
2023/11/28 07:50:46;;;;;;;9.80;6.45;;;;;;;-2.23;100.00;96493.78;6095934;19;20389;-74
2023/11/28 07:52:47;;;;;;;7.53;4.97;;;;;;;-2.19;100.00;96483.88;6096550;19;20066;-74
2023/11/28 07:54:47;;;;;;;9.73;5.95;;;;;;;-2.22;100.00;96498.09;6095837;19;20014;-74
2023/11/28 07:56:47;;;;;;;9.65;6.35;;;;;;;-2.21;100.00;96500.47;6096259;19;20016;-74
2023/11/28 07:58:48;;;;;;;10.07;6.22;;;;;;;-2.20;100.00;96504.75;6095042;19;20334;-74
2023/11/28 08:00:48;;;;;;;9.88;5.63;;;;;;;-2.19;100.00;96508.25;6095880;19;20030;-74
2023/11/28 08:02:48;;;;;;;10.88;6.63;;;;;;;-2.30;100.00;96516.06;6093625;19;20003;-74
2023/11/28 08:04:49;;;;;;;10.25;6.68;;;;;;;-2.23;100.00;96520.88;6096569;19;20018;-74
2023/11/28 08:06:49;;;;;;;13.85;6.70;;;;;;;-2.25;100.00;96518.53;6096530;19;20010;-74
2023/11/28 08:08:49;;;;;;;10.38;6.10;;;;;;;-2.27;100.00;96529.72;6094924;19;20229;-74
2023/11/28 08:10:50;;;;;;;12.57;6.38;;;;;;;-2.24;100.00;96532.84;6096602;19;20411;-74
2023/11/28 08:12:50;;;;;;;10.75;6.22;;;;;;;-2.27;100.00;96548.66;6096545;19;20019;-74
2023/11/28 08:14:52;;;;;;;9.35;5.28;;;;;;;-2.24;100.00;96536.34;6095747;19;20032;-74
2023/11/28 08:16:52;;;;;;;14.80;7.38;;;;;;;-2.17;100.00;96543.91;6096183;19;20327;-74
2023/11/28 08:18:53;;;;;;;11.55;6.85;;;;;;;-2.23;100.00;96556.09;6095169;19;20042;-74
2023/11/28 08:20:53;;;;;;;11.80;6.72;;;;;;;-2.25;100.00;96553.75;6095483;19;20007;-74
2023/11/28 08:22:53;;;;;;;10.65;6.53;;;;;;;-2.26;100.00;96554.88;6095568;19;19998;-74
2023/11/28 08:24:55;;;;;;;14.45;7.78;;;;;;;-2.26;100.00;96571.13;6093805;19;20553;-74
2023/11/28 08:26:56;;;;;;;16.10;8.38;;;;;;;-2.28;100.00;96565.28;6094931;19;20007;-74
2023/11/28 08:28:56;;;;;;;12.93;7.80;;;;;;;-2.28;100.00;96565.28;6102509;19;20018;-75
2023/11/28 08:30:56;;;;;;;11.43;6.85;;;;;;;-2.29;100.00;96580.75;6104108;19;20016;-74
2023/11/28 08:32:57;;;;;;;10.80;6.45;;;;;;;-2.27;100.00;96581.19;6103343;19;20336;-74
2023/11/28 08:34:57;;;;;;;11.00;6.57;;;;;;;-2.27;100.00;96581.19;6103948;19;20017;-75
2023/11/28 08:36:57;;;;;;;13.38;6.43;;;;;;;-2.24;100.00;96590.53;6102711;19;20799;-75
2023/11/28 08:38:58;;;;;;;13.45;8.10;;;;;;;-2.25;100.00;96594.38;6103388;19;20496;-74
2023/11/28 08:40:58;;;;;;;11.65;6.85;;;;;;;-2.22;100.00;96598.34;6103741;19;20057;-74
2023/11/28 08:42:58;;;;;;;9.73;6.03;;;;;;;-2.33;100.00;96604.19;6104050;19;20333;-74
2023/11/28 08:44:59;;;;;;;11.10;6.93;;;;;;;-2.37;100.00;96606.03;6103750;19;20015;-74
2023/11/28 08:46:59;;;;;;;14.07;6.90;;;;;;;-2.32;100.00;96603.09;6104200;19;20001;-74
2023/11/28 08:49:00;;;;;;;11.25;6.25;;;;;;;-2.33;100.00;96615.03;6101959;19;20479;-75
2023/11/28 08:51:00;;;;;;;11.88;6.22;;;;;;;-2.30;100.00;96621.72;6104209;19;20042;-74
2023/11/28 08:53:00;;;;;;;12.98;6.68;;;;;;;-2.30;100.00;96624.41;6103845;19;20002;-74
2023/11/28 08:55:01;;;;;;;12.73;6.90;;;;;;;-2.37;100.00;96624.97;6103458;19;20002;-74
2023/11/28 08:57:01;;;;;;;10.93;6.25;;;;;;;-2.31;100.00;96630.97;6102828;19;20018;-75
2023/11/28 08:59:02;;;;;;;13.43;6.80;;;;;;;-2.35;100.00;96633.56;6102247;19;20040;-74
2023/11/28 09:01:02;;;;;;;10.73;6.38;;;;;;;-2.27;100.00;96645.41;6103627;19;20081;-75
2023/11/28 09:03:03;;;;;;;10.75;6.63;;;;;;;-2.23;100.00;96640.91;6102873;19;19999;-75
2023/11/28 09:05:04;;;;;;;10.45;6.72;;;;;;;-2.25;100.00;96640.44;6103837;19;20793;-74
2023/11/28 09:07:04;;;;;;;10.65;6.20;;;;;;;-2.26;100.00;96655.91;6103175;19;20351;-75
2023/11/28 09:09:04;;;;;;;9.13;5.78;;;;;;;-2.22;100.00;96655.25;6101330;19;19998;-75
2023/11/28 09:11:05;;;;;;;10.40;6.25;;;;;;;-2.17;100.00;96668.53;6103914;19;20023;-75
2023/11/28 09:13:05;;;;;;;12.45;6.18;;;;;;;-2.26;100.00;96665.94;6103312;19;20302;-75
2023/11/28 09:15:06;;;;;;;12.40;6.82;;;;;;;-2.18;100.00;96672.38;6102398;19;20003;-75
2023/11/28 09:17:06;;;;;;;9.85;6.32;;;;;;;-2.19;100.00;96668.09;6102093;19;20500;-75
2023/11/28 09:19:07;;;;;;;11.18;6.35;;;;;;;-2.10;100.00;96677.69;6101505;19;20066;-75